.
WxDataArchive / Data Records for 2011-01-20
2011-01-19 January 2011 2011-01-21

Data Records for Thursday, 20 January 2011

Time	Temp	Chill	HIndex	Humid	Dewpt	 Wind 	HiWind	WindDir	Rain 	Barom 
-----	----	-----	------	-----	-----	------	------	-------	-----	----- 
00:00	22.5	22.5	22.5	72	14.9	0	1	248	0.00	30.182 
00:05	22.5	22.5	22.5	71	14.5	1	2	248	0.00	30.182 
00:10	22.5	22.5	22.5	71	14.5	0	1	248	0.00	30.182 
00:15	22.5	22.5	22.5	71	14.5	0	2	248	0.00	30.181 
00:20	22.5	22.5	22.5	70	14.2	0	1	248	0.00	30.181 
00:25	22.5	22.5	22.5	70	14.2	0	2	248	0.00	30.181 
00:30	22.4	22.4	22.4	70	14.1	0	2	248	0.00	30.177 
00:35	22.4	22.4	22.4	70	14.1	0	2	248	0.00	30.177 
00:40	22.4	22.4	22.4	70	14.1	0	2	292	0.00	30.177 
00:45	22.4	22.4	22.4	70	14.1	0	2	292	0.00	30.177 
00:50	22.4	22.4	22.4	70	14.1	0	2	315	0.00	30.177 
00:55	22.2	22.2	22.2	70	13.9	0	2	315	0.00	30.177 
01:00	22.2	22.2	22.2	70	13.9	0	2	315	0.00	30.180 
01:05	22.2	22.2	22.2	70	13.9	0	1	315	0.00	30.180 
01:10	22.1	22.1	22.1	70	13.8	0	1	315	0.00	30.180 
01:15	22.1	22.1	22.1	71	14.2	0	1	315	0.00	30.180 
01:20	21.9	21.9	21.9	71	14.0	0	0	---	0.00	30.180 
01:25	21.9	21.9	21.9	71	14.0	0	0	---	0.00	30.180 
01:30	21.9	21.9	21.9	71	14.0	0	1	315	0.00	30.181 
01:35	21.9	21.9	21.9	71	14.0	0	1	315	0.00	30.181 
01:40	21.9	21.9	21.9	72	14.3	0	0	---	0.00	30.181 
01:45	21.9	21.9	21.9	72	14.3	0	1	315	0.00	30.181 
01:50	21.8	21.8	21.8	72	14.2	0	1	315	0.00	30.181 
01:55	21.8	21.8	21.8	72	14.2	0	0	---	0.00	30.181 
02:00	21.8	21.8	21.8	72	14.2	0	0	---	0.00	30.180 
02:05	21.8	21.8	21.8	72	14.2	0	0	---	0.00	30.180 
02:10	21.8	21.8	21.8	72	14.2	0	1	315	0.00	30.180 
02:15	21.8	21.8	21.8	72	14.2	0	0	---	0.00	30.177 
02:20	21.8	21.8	21.8	72	14.2	0	0	---	0.00	30.177 
02:25	21.6	21.6	21.6	72	14.0	0	0	---	0.00	30.177 
02:30	21.6	21.6	21.6	72	14.0	0	0	---	0.00	30.176 
02:35	21.6	21.6	21.6	72	14.0	0	0	---	0.00	30.176 
02:40	21.6	21.6	21.6	73	14.3	0	0	---	0.00	30.176 
02:45	21.6	21.6	21.6	73	14.3	0	0	---	0.00	30.174 
02:50	21.4	21.4	21.4	73	14.1	0	0	---	0.00	30.174 
02:55	21.4	21.4	21.4	73	14.1	0	0	---	0.00	30.174 
03:00	21.4	21.4	21.4	73	14.1	0	0	---	0.00	30.169 
03:05	21.4	21.4	21.4	73	14.1	0	0	---	0.00	30.169 
03:10	21.4	21.4	21.4	73	14.1	0	0	---	0.00	30.169 
03:15	21.4	21.4	21.4	73	14.1	0	0	---	0.00	30.170 
03:20	21.4	21.4	21.4	74	14.4	0	0	---	0.00	30.170 
03:25	21.4	21.4	21.4	74	14.4	0	1	315	0.00	30.170 
03:30	21.4	21.4	21.4	74	14.4	0	1	315	0.00	30.175 
03:35	21.4	21.4	21.4	74	14.4	0	0	---	0.00	30.175 
03:40	21.4	21.4	21.4	74	14.4	0	0	---	0.00	30.175 
03:45	21.4	21.4	21.4	74	14.4	0	1	315	0.00	30.180 
03:50	21.6	21.6	21.6	74	14.6	0	2	315	0.00	30.180 
03:55	21.6	21.6	21.6	74	14.6	0	0	---	0.00	30.180 
04:00	21.6	21.6	21.6	75	14.9	0	0	---	0.00	30.180 
04:05	21.6	21.6	21.6	75	14.9	0	1	315	0.00	30.180 
04:10	21.6	21.6	21.6	75	14.9	0	1	315	0.00	30.180 
04:15	21.6	21.6	21.6	75	14.9	0	0	---	0.00	30.180 
04:20	21.6	21.6	21.6	75	14.9	0	0	---	0.00	30.180 
04:25	21.6	21.6	21.6	75	14.9	0	0	---	0.00	30.180 
04:30	21.6	21.6	21.6	75	14.9	0	1	315	0.00	30.176 
04:35	21.6	21.6	21.6	74	14.6	0	1	315	0.00	30.176 
04:40	21.6	21.6	21.6	74	14.6	0	1	315	0.00	30.176 
04:45	21.6	21.6	21.6	75	14.9	0	2	315	0.00	30.177 
04:50	21.6	21.6	21.6	75	14.9	0	2	315	0.00	30.177 
04:55	21.6	21.6	21.6	74	14.6	0	1	315	0.00	30.177 
05:00	21.4	21.4	21.4	74	14.4	0	1	315	0.00	30.171 
05:05	21.4	21.4	21.4	74	14.4	0	2	315	0.00	30.171 
05:10	21.4	21.4	21.4	74	14.4	0	2	315	0.00	30.171 
05:15	21.4	21.4	21.4	75	14.7	0	1	315	0.00	30.172 
05:20	21.3	21.3	21.3	75	14.6	0	1	315	0.00	30.172 
05:25	21.3	21.3	21.3	75	14.6	0	1	315	0.00	30.172 
05:30	21.3	21.3	21.3	75	14.6	0	1	315	0.00	30.167 
05:35	21.3	21.3	21.3	75	14.6	0	1	315	0.00	30.167 
05:40	21.3	21.3	21.3	75	14.6	0	1	315	0.00	30.167 
05:45	21.1	21.1	21.1	75	14.4	0	2	315	0.00	30.166 
05:50	21.1	21.1	21.1	74	14.1	0	1	315	0.00	30.166 
05:55	21.1	21.1	21.1	74	14.1	0	1	315	0.00	30.166 
06:00	21.1	21.1	21.1	74	14.1	0	1	315	0.00	30.166 
06:05	21.1	21.1	21.1	74	14.1	0	1	315	0.00	30.166 
06:10	21.1	21.1	21.1	74	14.1	0	0	---	0.00	30.166 
06:15	21.0	21.0	21.0	74	14.0	0	0	---	0.00	30.165 
06:20	21.0	21.0	21.0	74	14.0	0	0	---	0.00	30.165 
06:25	21.0	21.0	21.0	74	14.0	0	1	315	0.00	30.165 
06:30	21.0	21.0	21.0	74	14.0	0	0	---	0.00	30.163 
06:35	21.0	21.0	21.0	74	14.0	0	1	315	0.00	30.163 
06:40	21.0	21.0	21.0	74	14.0	0	0	---	0.00	30.163 
06:45	21.0	21.0	21.0	73	13.7	0	0	---	0.00	30.161 
06:50	21.0	21.0	21.0	73	13.7	0	1	315	0.00	30.161 
06:55	21.0	21.0	21.0	73	13.7	0	0	---	0.00	30.161 
07:00	21.0	21.0	21.0	73	13.7	0	0	---	0.00	30.163 
07:05	21.0	21.0	21.0	73	13.7	0	1	315	0.00	30.163 
07:10	21.0	21.0	21.0	73	13.7	0	1	315	0.00	30.163 
07:15	21.1	21.1	21.1	73	13.8	0	1	315	0.00	30.166 
07:20	21.1	21.1	21.1	73	13.8	0	0	---	0.00	30.166 
07:25	21.1	21.1	21.1	73	13.8	0	1	315	0.00	30.166 
07:30	21.1	21.1	21.1	73	13.8	0	1	315	0.00	30.167 
07:35	21.1	21.1	21.1	73	13.8	0	1	315	0.00	30.167 
07:40	21.1	21.1	21.1	73	13.8	0	1	315	0.00	30.167 
07:45	21.1	21.1	21.1	73	13.8	0	1	315	0.00	30.165 
07:50	21.1	21.1	21.1	73	13.8	0	0	---	0.00	30.165 
07:55	21.1	21.1	21.1	73	13.8	0	2	315	0.00	30.165 
08:00	21.1	21.1	21.1	72	13.5	0	1	315	0.00	30.161 
08:05	21.1	21.1	21.1	72	13.5	0	1	315	0.00	30.161 
08:10	21.3	21.3	21.3	72	13.7	0	1	315	0.00	30.161 
08:15	21.3	21.3	21.3	72	13.7	0	0	---	0.00	30.154 
08:20	21.3	21.3	21.3	73	14.0	0	0	---	0.00	30.154 
08:25	21.3	21.3	21.3	73	14.0	0	0	---	0.00	30.154 
08:30	21.4	21.4	21.4	73	14.1	0	0	---	0.00	30.148 
08:35	21.4	21.4	21.4	73	14.1	0	1	315	0.00	30.148 
08:40	21.4	21.4	21.4	73	14.1	0	1	315	0.00	30.148 
08:45	21.4	21.4	21.4	73	14.1	0	1	315	0.00	30.151 
08:50	21.6	21.6	21.6	73	14.3	0	0	---	0.00	30.151 
08:55	21.6	21.6	21.6	72	14.0	0	1	315	0.00	30.151 
09:00	21.6	21.6	21.6	72	14.0	0	2	315	0.00	30.149 
09:05	21.6	21.6	21.6	72	14.0	0	1	315	0.00	30.149 
09:10	21.6	21.6	21.6	72	14.0	0	1	315	0.00	30.149 
09:15	21.8	21.8	21.8	72	14.2	0	3	315	0.00	30.146 
09:20	21.8	21.8	21.8	72	14.2	0	1	315	0.00	30.146 
09:25	21.8	21.8	21.8	71	13.9	0	2	315	0.00	30.146 
09:30	21.9	21.9	21.9	71	14.0	0	1	202	0.00	30.146 
09:35	21.9	21.9	21.9	71	14.0	0	1	338	0.00	30.146 
09:40	22.1	22.1	22.1	71	14.2	0	1	338	0.00	30.146 
09:45	22.2	22.2	22.2	71	14.3	0	2	338	0.00	30.148 
09:50	22.4	22.4	22.4	71	14.4	0	1	338	0.00	30.148 
09:55	22.5	22.5	22.5	71	14.5	0	2	248	0.00	30.148 
10:00	22.7	22.7	22.7	70	14.4	0	2	248	0.00	30.146 
10:05	22.5	22.5	22.5	70	14.2	0	1	315	0.00	30.146 
10:10	22.7	22.7	22.7	71	14.7	0	2	315	0.00	30.146 
10:15	22.7	22.7	22.7	71	14.7	0	1	315	0.00	30.140 
10:20	22.7	22.7	22.7	73	15.4	0	1	315	0.00	30.140 
10:25	22.7	22.7	22.7	74	15.7	0	3	315	0.00	30.140 
10:30	22.5	22.5	22.5	75	15.8	0	2	315	0.00	30.136 
10:35	22.4	22.4	22.4	76	16.0	0	2	315	0.00	30.136 
10:40	22.4	22.4	22.4	77	16.3	0	1	315	0.00	30.136 
10:45	22.4	22.4	22.4	77	16.3	0	1	315	0.00	30.135 
10:50	22.2	22.2	22.2	78	16.4	0	1	315	0.00	30.135 
10:55	22.2	22.2	22.2	78	16.4	0	1	315	0.00	30.135 
11:00	22.4	22.4	22.4	79	16.9	0	2	315	0.00	30.127 
11:05	22.5	22.5	22.5	80	17.3	0	1	315	0.00	30.127 
11:10	22.4	22.4	22.4	79	16.9	1	3	315	0.00	30.127 
11:15	22.2	22.2	22.2	79	16.7	0	2	315	0.00	30.122 
11:20	22.5	22.5	22.5	80	17.3	0	1	315	0.00	30.122 
11:25	22.9	22.9	22.9	81	18.0	0	2	315	0.00	30.122 
11:30	22.9	22.9	22.9	80	17.7	1	2	315	0.00	30.117 
11:35	22.9	22.9	22.9	80	17.7	0	1	248	0.00	30.117 
11:40	22.9	22.9	22.9	81	18.0	0	1	248	0.00	30.117 
11:45	22.9	22.9	22.9	81	18.0	0	1	248	0.00	30.106 
11:50	23.0	23.0	23.0	81	18.1	0	1	248	0.00	30.106 
11:55	23.0	23.0	23.0	81	18.1	0	2	248	0.00	30.106 
12:00	23.0	23.0	23.0	81	18.1	0	2	248	0.00	30.094 
12:05	23.0	23.0	23.0	81	18.1	1	2	248	0.00	30.094 
12:10	22.9	22.9	22.9	81	18.0	0	2	248	0.00	30.094 
12:15	23.0	23.0	23.0	81	18.1	0	1	248	0.00	30.079 
12:20	23.0	23.0	23.0	81	18.1	0	1	248	0.00	30.079 
12:25	23.2	23.2	23.2	81	18.3	0	2	248	0.00	30.079 
12:30	23.0	23.0	23.0	81	18.1	0	2	248	0.00	30.068 
12:35	23.0	23.0	23.0	81	18.1	0	2	248	0.00	30.068 
12:40	22.9	22.9	22.9	81	18.0	0	2	248	0.00	30.068 
12:45	22.7	22.7	22.7	81	17.8	0	1	248	0.00	30.057 
12:50	22.7	22.7	22.7	81	17.8	0	1	248	0.00	30.057 
12:55	23.0	23.0	23.0	82	18.3	0	1	248	0.00	30.057 
13:00	22.9	22.9	22.9	81	18.0	0	3	338	0.00	30.044 
13:05	22.9	22.9	22.9	81	18.0	0	2	338	0.00	30.044 
13:10	23.0	23.0	23.0	81	18.1	0	2	338	0.00	30.044 
13:15	23.2	23.2	23.2	81	18.3	0	2	338	0.00	30.030 
13:20	23.2	23.2	23.2	81	18.3	0	3	338	0.00	30.030 
13:25	23.0	23.0	23.0	81	18.1	0	4	338	0.00	30.030 
13:30	23.2	23.2	23.2	81	18.3	0	1	338	0.00	30.013 
13:35	23.0	23.0	23.0	81	18.1	0	2	338	0.00	30.013 
13:40	23.0	23.0	23.0	81	18.1	0	3	338	0.00	30.013 
13:45	23.0	23.0	23.0	80	17.8	0	3	292	0.00	30.014 
13:50	22.9	22.9	22.9	80	17.7	0	2	315	0.00	30.014 
13:55	22.9	22.9	22.9	81	18.0	0	2	315	0.00	30.014 
14:00	22.9	22.9	22.9	81	18.0	0	2	315	0.00	30.011 
14:05	22.9	22.9	22.9	81	18.0	0	1	315	0.00	30.011 
14:10	22.9	22.9	22.9	81	18.0	0	1	315	0.00	30.011 
14:15	22.9	22.9	22.9	81	18.0	0	2	315	0.00	29.997 
14:20	22.9	22.9	22.9	81	18.0	0	3	315	0.00	29.997 
14:25	22.9	22.9	22.9	81	18.0	0	1	315	0.00	29.997 
14:30	22.9	22.9	22.9	81	18.0	0	2	315	0.00	29.983 
14:35	22.9	22.9	22.9	81	18.0	0	1	315	0.00	29.983 
14:40	22.9	22.9	22.9	82	18.2	0	2	315	0.00	29.983 
14:45	22.9	22.9	22.9	83	18.5	1	2	315	0.00	29.981 
14:50	22.9	22.9	22.9	83	18.5	0	2	315	0.00	29.981 
14:55	22.9	22.9	22.9	82	18.2	1	2	315	0.00	29.981 
15:00	22.9	22.9	22.9	83	18.5	0	2	315	0.00	29.977 
15:05	22.7	22.7	22.7	83	18.3	1	2	315	0.00	29.977 
15:10	22.7	22.7	22.7	82	18.0	0	2	315	0.00	29.977 
15:15	22.5	22.5	22.5	82	17.9	0	2	315	0.00	29.973 
15:20	22.5	22.5	22.5	82	17.9	1	2	315	0.00	29.973 
15:25	22.5	22.5	22.5	83	18.1	0	1	315	0.00	29.973 
15:30	22.7	22.7	22.7	83	18.3	0	2	315	0.00	29.975 
15:35	22.5	22.5	22.5	83	18.1	0	1	315	0.00	29.975 
15:40	22.7	22.7	22.7	84	18.6	0	1	315	0.00	29.975 
15:45	22.7	22.7	22.7	84	18.6	0	2	315	0.00	29.967 
15:50	22.7	22.7	22.7	84	18.6	0	1	315	0.00	29.967 
15:55	22.7	22.7	22.7	84	18.6	1	3	315	0.00	29.967 
16:00	22.4	22.4	22.4	84	18.3	1	3	270	0.00	29.969 
16:05	22.2	22.2	22.2	84	18.1	1	3	270	0.00	29.969 
16:10	21.9	21.9	21.9	84	17.8	1	3	270	0.00	29.969 
16:15	21.9	21.9	21.9	84	17.8	0	2	270	0.00	29.967 
16:20	21.8	21.8	21.8	84	17.7	1	3	270	0.00	29.967 
16:25	21.6	21.6	21.6	84	17.5	1	2	270	0.00	29.967 
16:30	21.6	21.6	21.6	84	17.5	0	1	270	0.00	29.964 
16:35	21.8	21.8	21.8	84	17.7	1	2	270	0.00	29.964 
16:40	21.6	21.6	21.6	84	17.5	1	2	270	0.00	29.964 
16:45	21.6	21.6	21.6	84	17.5	1	3	270	0.00	29.964 
16:50	21.4	21.4	21.4	84	17.3	0	1	270	0.00	29.964 
16:55	21.3	21.3	21.3	85	17.5	1	2	315	0.00	29.964 
17:00	21.0	21.0	21.0	84	16.9	1	3	315	0.00	29.959 
17:05	21.0	21.0	21.0	84	16.9	0	3	315	0.00	29.959 
17:10	20.8	20.8	20.8	85	17.0	0	1	315	0.00	29.959 
17:15	20.8	20.8	20.8	85	17.0	0	1	315	0.00	29.953 
17:20	20.8	20.8	20.8	85	17.0	0	2	315	0.00	29.953 
17:25	20.8	20.8	20.8	85	17.0	0	1	315	0.00	29.953 
17:30	20.8	20.8	20.8	85	17.0	0	1	315	0.00	29.949 
17:35	20.8	20.8	20.8	85	17.0	0	1	315	0.00	29.949 
17:40	20.6	20.6	20.6	85	16.8	0	2	315	0.00	29.949 
17:45	20.6	20.6	20.6	85	16.8	0	1	315	0.00	29.938 
17:50	20.6	20.6	20.6	85	16.8	0	1	315	0.00	29.938 
17:55	20.6	20.6	20.6	85	16.8	0	1	292	0.00	29.938 
18:00	20.6	20.6	20.6	86	17.1	0	3	248	0.00	29.934 
18:05	20.6	20.6	20.6	86	17.1	0	2	248	0.00	29.934 
18:10	20.6	20.6	20.6	86	17.1	1	3	248	0.00	29.934 
18:15	20.6	20.6	20.6	86	17.1	0	2	248	0.00	29.929 
18:20	20.6	20.6	20.6	86	17.1	0	2	248	0.00	29.929 
18:25	20.6	20.6	20.6	86	17.1	0	2	248	0.00	29.929 
18:30	20.6	20.6	20.6	86	17.1	1	4	248	0.00	29.919 
18:35	20.5	20.5	20.5	85	16.7	1	3	248	0.00	29.919 
18:40	20.5	20.5	20.5	85	16.7	0	1	248	0.00	29.919 
18:45	20.3	20.3	20.3	85	16.5	0	1	248	0.00	29.914 
18:50	20.3	20.3	20.3	85	16.5	1	2	248	0.00	29.914 
18:55	20.3	20.3	20.3	85	16.5	0	1	248	0.00	29.914 
19:00	20.2	20.2	20.2	85	16.4	1	4	248	0.00	29.918 
19:05	20.2	20.2	20.2	85	16.4	1	3	270	0.00	29.918 
19:10	20.0	20.0	20.0	84	16.0	0	3	248	0.00	29.918 
19:15	19.9	19.9	19.9	84	15.9	0	2	248	0.00	29.910 
19:20	19.9	19.9	19.9	84	15.9	0	4	248	0.00	29.910 
19:25	19.9	19.9	19.9	84	15.9	1	2	248	0.00	29.910 
19:30	19.9	19.9	19.9	84	15.9	1	5	248	0.00	29.912 
19:35	19.7	19.7	19.7	84	15.7	1	5	248	0.00	29.912 
19:40	19.7	19.7	19.7	84	15.7	1	5	248	0.00	29.912 
19:45	19.7	19.7	19.7	84	15.7	1	4	248	0.00	29.917 
19:50	19.7	19.7	19.7	84	15.7	1	4	248	0.00	29.917 
19:55	19.5	19.5	19.5	84	15.5	2	6	248	0.00	29.917 
20:00	19.4	19.4	19.4	84	15.4	2	6	248	0.00	29.913 
20:05	19.2	19.2	19.2	84	15.2	3	7	248	0.00	29.913 
20:10	19.2	19.2	19.2	84	15.2	3	6	248	0.00	29.913 
20:15	19.2	19.2	19.2	84	15.2	3	7	248	0.00	29.908 
20:20	19.2	19.2	19.2	84	15.2	2	6	248	0.00	29.908 
20:25	19.1	19.1	19.1	84	15.1	2	5	248	0.00	29.908 
20:30	18.9	18.9	18.9	83	14.6	3	10	270	0.00	29.904 
20:35	18.9	18.9	18.9	83	14.6	3	6	225	0.00	29.904 
20:40	18.9	18.9	18.9	83	14.6	2	4	248	0.00	29.904 
20:45	18.9	18.9	18.9	83	14.6	2	7	270	0.00	29.905 
20:50	18.9	18.9	18.9	83	14.6	3	6	248	0.00	29.905 
20:55	18.9	18.9	18.9	83	14.6	2	7	248	0.00	29.905 
21:00	18.9	18.9	18.9	84	14.9	2	5	248	0.00	29.903 
21:05	18.8	18.8	18.8	83	14.5	2	9	270	0.00	29.903 
21:10	18.9	18.9	18.9	83	14.6	1	3	270	0.00	29.903 
21:15	18.8	18.8	18.8	83	14.5	3	10	270	0.00	29.899 
21:20	18.8	18.8	18.8	82	14.2	3	6	270	0.00	29.899 
21:25	18.8	18.8	18.8	82	14.2	2	5	248	0.00	29.899 
21:30	18.6	18.6	18.6	81	13.8	3	6	270	0.00	29.901 
21:35	18.6	18.6	18.6	81	13.8	3	6	270	0.00	29.901 
21:40	18.6	18.6	18.6	80	13.5	3	5	270	0.00	29.901 
21:45	18.4	18.4	18.4	79	13.0	3	5	270	0.00	29.898 
21:50	18.4	18.4	18.4	79	13.0	2	5	270	0.00	29.898 
21:55	18.4	18.4	18.4	79	13.0	2	4	270	0.00	29.898 
22:00	18.3	18.3	18.3	79	12.9	2	4	248	0.00	29.900 
22:05	18.3	18.3	18.3	79	12.9	2	4	248	0.00	29.900 
22:10	18.1	18.1	18.1	78	12.4	3	6	270	0.00	29.900 
22:15	18.0	18.0	18.0	78	12.3	2	5	270	0.00	29.894 
22:20	17.8	17.8	17.8	78	12.1	2	6	248	0.00	29.894 
22:25	17.7	17.7	17.7	78	12.0	3	6	270	0.00	29.894 
22:30	17.5	17.5	17.5	77	11.5	3	5	248	0.00	29.893 
22:35	17.3	17.3	17.3	77	11.3	3	4	270	0.00	29.893 
22:40	17.2	17.2	17.2	77	11.3	2	4	270	0.00	29.893 
22:45	16.9	16.9	16.9	77	11.0	2	4	248	0.00	29.899 
22:50	16.9	16.9	16.9	77	11.0	2	6	248	0.00	29.899 
22:55	16.7	16.7	16.7	77	10.8	3	6	248	0.00	29.899 
23:00	16.5	16.5	16.5	78	10.9	3	10	248	0.00	29.901 
23:05	16.4	16.4	16.4	78	10.8	2	5	248	0.00	29.901 
23:10	16.2	16.2	16.2	78	10.6	2	5	270	0.00	29.901 
23:15	16.2	16.2	16.2	78	10.6	2	5	270	0.00	29.905 
23:20	16.1	16.1	16.1	78	10.5	2	6	270	0.00	29.905 
23:25	15.9	15.9	15.9	77	10.0	2	4	225	0.00	29.905 
23:30	15.6	15.6	15.6	77	9.7	2	5	248	0.00	29.905 
23:35	15.4	15.4	15.4	77	9.5	2	4	248	0.00	29.905 
23:40	15.2	15.2	15.2	76	9.0	2	4	270	0.00	29.905 
23:45	15.1	15.1	15.1	76	8.9	2	5	270	0.00	29.907 
23:50	15.1	15.1	15.1	75	8.6	2	5	270	0.00	29.907 
23:55	14.9	14.9	14.9	74	8.1	2	4	270	0.00	29.907 

CoCoRaHS
IN-AL-39
A2 Web Hosting
Creative Commons License
GoDaddy
search engine by freefind advanced

loaded 2018-11-16 01:05:53 • last modified 2010-11-18 10:43:29
Privacy PolicyDisclaimer
• wx.awcolley.com is powered by PmWiki v.2002016 •
• all content (unless otherwise noted) © 2018 A W Colley